Time;durP1;ratioP1;P1;durP2;ratioP2;P2;SDS_P1;SDS_P2;PMS_P1;PMS_P2;Temp;Humidity;BMP_temperature;BMP_pressure;BME280_temperature;BME280_humidity;BME280_pressure;Samples;Min_cycle;Max_cycle;Signal;HPM_P1;HPM_P2
2022/10/18 00:00:48;;;;;;;17.58;7.10;;;;;;;17.37;100.00;102193.16;5075244;28;20052;-75
2022/10/18 00:03:14;;;;;;;18.65;7.13;;;;;;;17.37;100.00;102193.16;5082949;28;20056;-75
2022/10/18 00:05:40;;;;;;;18.40;7.00;;;;;;;17.38;100.00;102194.75;5079189;28;20431;-75
2022/10/18 00:08:07;;;;;;;20.00;7.28;;;;;;;17.40;100.00;102179.16;5081781;28;20036;-75
2022/10/18 00:10:34;;;;;;;16.08;6.18;;;;;;;17.41;100.00;102185.53;5115582;27;20056;-74
2022/10/18 00:13:03;;;;;;;18.45;6.80;;;;;;;17.41;100.00;102186.31;5073400;28;20059;-75
2022/10/18 00:15:31;;;;;;;17.83;6.57;;;;;;;17.40;100.00;102181.94;5078621;28;20174;-75
2022/10/18 00:17:57;;;;;;;14.05;6.00;;;;;;;17.39;100.00;102185.16;5080327;28;20043;-74
2022/10/18 00:20:32;;;;;;;17.05;6.72;;;;;;;17.38;100.00;102175.19;5086693;28;20064;-75
2022/10/18 00:22:59;;;;;;;;;;;;;;;17.41;100.00;102191.13;5080310;28;20051;-72
2022/10/18 00:25:25;;;;;;;22.60;6.55;;;;;;;17.38;100.00;102170.34;5078655;28;20016;-73
2022/10/18 00:27:52;;;;;;;17.42;6.68;;;;;;;17.38;100.00;102178.75;5090267;28;20044;-74
2022/10/18 00:30:18;;;;;;;18.90;7.57;;;;;;;17.33;100.00;102176.41;5087564;28;20047;-75
2022/10/18 00:32:47;;;;;;;17.65;7.32;;;;;;;17.34;100.00;102177.16;5086704;28;20052;-73
2022/10/18 00:35:14;;;;;;;16.00;5.82;;;;;;;17.35;100.00;102179.56;5082672;28;20074;-75
2022/10/18 00:37:40;;;;;;;20.70;7.63;;;;;;;17.34;100.00;102175.19;5070888;28;20056;-76
2022/10/18 00:40:07;;;;;;;20.17;6.63;;;;;;;17.34;100.00;102171.56;5078992;28;20048;-75
2022/10/18 00:42:35;;;;;;;17.90;6.45;;;;;;;17.35;100.00;102178.78;5079385;28;20087;-75
2022/10/18 00:45:14;;;;;;;15.90;5.90;;;;;;;17.34;100.00;102168.78;5079834;28;20048;-75
2022/10/18 00:47:43;;;;;;;17.65;5.95;;;;;;;17.35;100.00;102173.19;5088257;28;20055;-76
2022/10/18 00:50:13;;;;;;;18.13;6.43;;;;;;;17.35;100.00;102165.56;5077235;28;20059;-76
2022/10/18 00:52:47;;;;;;;18.55;6.03;;;;;;;17.34;100.00;102164.00;5074267;28;20052;-75
2022/10/18 00:55:14;;;;;;;16.80;5.70;;;;;;;17.33;100.00;102158.81;5083559;28;20194;-74
2022/10/18 00:57:42;;;;;;;16.38;6.63;;;;;;;17.35;100.00;102162.00;5087480;28;20048;-75
2022/10/18 01:00:10;;;;;;;20.20;6.50;;;;;;;17.33;100.00;102159.59;5089327;28;20067;-75
2022/10/18 01:02:37;;;;;;;22.05;6.30;;;;;;;17.32;100.00;102160.78;5090508;28;20047;-75
2022/10/18 01:05:04;;;;;;;18.45;6.22;;;;;;;17.32;100.00;102152.41;5073380;28;20044;-75
2022/10/18 01:08:08;;;;;;;14.95;6.28;;;;;;;17.32;100.00;102152.41;5090915;28;20069;-76
2022/10/18 01:11:02;;;;;;;17.80;6.53;;;;;;;17.33;100.00;102147.63;5082598;28;20168;-75
2022/10/18 01:13:47;;;;;;;14.80;6.07;;;;;;;17.29;100.00;102149.63;5089882;28;20052;-75
2022/10/18 01:16:31;;;;;;;19.27;6.32;;;;;;;17.31;100.00;102150.00;5085340;28;20052;-75
2022/10/18 01:19:33;;;;;;;16.63;6.03;;;;;;;17.31;100.00;102150.00;5077431;28;20051;-74
2022/10/18 01:22:42;;;;;;;12.73;6.10;;;;;;;17.29;100.00;102144.03;5078566;28;20048;-74
2022/10/18 01:25:23;;;;;;;22.80;7.13;;;;;;;17.28;100.00;102136.88;5080168;28;20497;-74
2022/10/18 01:27:54;;;;;;;19.58;6.22;;;;;;;17.29;100.00;102144.03;5090628;28;20043;-74
2022/10/18 01:30:42;;;;;;;20.88;6.82;;;;;;;17.26;100.00;102140.06;5083891;28;20120;-74
2022/10/18 01:33:18;;;;;;;18.10;6.43;;;;;;;17.26;100.00;102148.47;5082453;28;20044;-74
2022/10/18 01:35:50;;;;;;;19.02;7.78;;;;;;;17.24;100.00;102144.47;5082137;28;20048;-74
2022/10/18 01:38:19;;;;;;;13.25;5.57;;;;;;;17.21;100.00;102145.31;5079175;28;20512;-74
2022/10/18 01:40:49;;;;;;;20.20;6.53;;;;;;;17.20;100.00;102146.47;5086458;28;20067;-75
2022/10/18 01:43:17;;;;;;;17.23;7.10;;;;;;;17.19;100.00;102147.69;5087196;28;20040;-74
2022/10/18 01:45:44;;;;;;;16.23;6.70;;;;;;;17.18;100.00;102146.13;5086476;28;20132;-75
2022/10/18 01:48:12;;;;;;;14.77;6.18;;;;;;;17.16;100.00;102137.31;5082511;28;20048;-74
2022/10/18 01:50:39;;;;;;;14.90;5.47;;;;;;;17.14;100.00;102140.53;5082434;28;20052;-74
2022/10/18 01:53:20;;;;;;;15.38;6.20;;;;;;;17.12;100.00;102131.75;5087316;28;20047;-74
2022/10/18 01:55:55;;;;;;;14.23;5.95;;;;;;;17.13;100.00;102126.94;5078090;28;20395;-75
2022/10/18 01:58:34;;;;;;;;;;;;;;;17.13;100.00;102129.75;5088946;28;20099;-74
2022/10/18 02:01:27;;;;;;;12.30;5.85;;;;;;;17.11;100.00;102138.53;5080779;28;19927;-74
2022/10/18 02:03:56;;;;;;;16.75;6.43;;;;;;;17.07;100.00;102131.38;5086986;28;20061;-75
2022/10/18 02:06:30;;;;;;;24.95;6.57;;;;;;;17.09;100.00;102134.56;5084864;28;20067;-74
2022/10/18 02:09:06;;;;;;;16.05;6.40;;;;;;;17.10;100.00;102134.16;5082620;28;20524;-75
2022/10/18 02:11:36;;;;;;;24.88;6.47;;;;;;;17.09;100.00;102138.16;5076899;28;20056;-75
2022/10/18 02:14:07;;;;;;;16.33;5.57;;;;;;;17.09;100.00;102135.38;5083790;28;20051;-73
2022/10/18 02:16:43;;;;;;;17.08;5.80;;;;;;;17.09;100.00;102134.56;5089641;28;20520;-74
2022/10/18 02:19:14;;;;;;;19.60;6.72;;;;;;;17.10;100.00;102136.16;5076207;28;20059;-74
2022/10/18 02:21:43;;;;;;;19.23;5.70;;;;;;;17.08;100.00;102130.97;5086665;28;20048;-75
2022/10/18 02:24:13;;;;;;;15.35;6.07;;;;;;;17.06;100.00;102129.78;5078296;28;20408;-74
2022/10/18 02:26:42;;;;;;;18.38;5.97;;;;;;;17.09;100.00;102137.38;5089178;28;20052;-74
2022/10/18 02:29:10;;;;;;;14.73;6.22;;;;;;;17.09;100.00;102140.97;5084240;28;20501;-74
2022/10/18 02:31:44;;;;;;;17.83;6.40;;;;;;;17.08;100.00;102139.34;5078584;28;20454;-73
2022/10/18 02:34:20;;;;;;;15.15;6.22;;;;;;;17.09;100.00;102148.56;5077138;28;20137;-74
2022/10/18 02:36:51;;;;;;;16.85;7.13;;;;;;;17.09;100.00;102137.38;5078653;28;20052;-74
2022/10/18 02:39:26;;;;;;;23.90;6.60;;;;;;;17.05;100.00;102136.59;5084001;28;20047;-74
2022/10/18 02:41:53;;;;;;;16.70;6.25;;;;;;;17.05;100.00;102134.56;5089611;28;20052;-74
2022/10/18 02:44:22;;;;;;;21.55;6.85;;;;;;;17.09;100.00;102138.16;5080541;28;20052;-74
2022/10/18 02:46:49;;;;;;;14.93;6.47;;;;;;;17.10;100.00;102133.34;5082589;27;20056;-74
2022/10/18 02:49:15;;;;;;;17.77;6.22;;;;;;;17.11;100.00;102140.56;5079596;28;20059;-74
2022/10/18 02:51:42;;;;;;;20.83;6.95;;;;;;;17.08;100.00;102135.78;5083545;28;20044;-74
2022/10/18 02:54:09;;;;;;;16.55;6.45;;;;;;;17.08;100.00;102138.56;5073259;28;20121;-75
2022/10/18 02:56:35;;;;;;;19.48;7.10;;;;;;;17.09;100.00;102131.78;5084588;28;20067;-74
2022/10/18 02:59:03;;;;;;;17.27;5.80;;;;;;;17.07;100.00;102134.16;5080678;28;20052;-74
2022/10/18 03:01:31;;;;;;;22.77;7.10;;;;;;;17.09;100.00;102134.56;5072562;28;20496;-74
2022/10/18 03:03:58;;;;;;;19.08;6.85;;;;;;;17.08;100.00;102135.78;5086720;28;20070;-74
2022/10/18 03:06:24;;;;;;;19.60;7.32;;;;;;;17.07;100.00;102146.16;5083366;28;20048;-75
2022/10/18 03:08:51;;;;;;;16.08;6.45;;;;;;;17.12;100.00;102139.34;5081755;28;20321;-75
2022/10/18 03:11:17;;;;;;;14.80;6.03;;;;;;;17.11;100.00;102143.34;5086200;28;20048;-74
2022/10/18 03:13:45;;;;;;;23.20;7.10;;;;;;;17.09;100.00;102140.97;5080576;28;20054;-73
2022/10/18 03:16:12;;;;;;;20.15;6.93;;;;;;;17.08;100.00;102142.16;5077795;28;20049;-75
2022/10/18 03:18:38;;;;;;;15.52;6.35;;;;;;;17.11;100.00;102151.75;5085788;28;20048;-75
2022/10/18 03:21:06;;;;;;;16.95;6.35;;;;;;;17.10;100.00;102145.34;5077348;28;20142;-73
2022/10/18 03:23:33;;;;;;;17.95;6.63;;;;;;;17.10;100.00;102142.56;5080781;28;20449;-74
2022/10/18 03:26:06;;;;;;;14.02;6.07;;;;;;;17.08;100.00;102146.97;5088119;28;20044;-75
2022/10/18 03:28:32;;;;;;;20.23;6.53;;;;;;;17.07;100.00;102136.97;5073762;28;20070;-74
2022/10/18 03:31:03;;;;;;;20.40;6.57;;;;;;;17.06;100.00;102152.16;5080302;28;20044;-74
2022/10/18 03:33:31;;;;;;;15.95;6.35;;;;;;;17.04;100.00;102149.75;5067581;28;20059;-74
2022/10/18 03:36:03;;;;;;;18.83;6.65;;;;;;;16.97;100.00;102147.00;5079466;28;20110;-74
2022/10/18 03:38:29;;;;;;;18.25;6.30;;;;;;;16.93;100.00;102145.44;5087692;28;20054;-75
2022/10/18 03:40:56;;;;;;;15.35;6.22;;;;;;;16.93;100.00;102153.81;5085718;28;20051;-74
2022/10/18 03:43:22;;;;;;;21.52;6.53;;;;;;;16.95;100.00;102148.63;5075160;28;20051;-74
2022/10/18 03:45:49;;;;;;;13.93;6.00;;;;;;;16.85;100.00;102147.47;5082877;28;20048;-74
2022/10/18 03:48:15;;;;;;;18.13;7.07;;;;;;;16.88;100.00;102148.66;5088809;28;20424;-74
2022/10/18 03:50:42;;;;;;;18.25;7.13;;;;;;;16.87;100.00;102141.47;5086544;28;20049;-75
2022/10/18 03:53:09;;;;;;;17.08;6.90;;;;;;;16.92;100.00;102143.84;5080115;28;20048;-74
2022/10/18 03:55:36;;;;;;;18.13;7.38;;;;;;;16.92;100.00;102144.66;5079651;28;20067;-75
2022/10/18 03:58:03;;;;;;;15.80;6.88;;;;;;;16.94;100.00;102142.22;5075117;28;20044;-74
2022/10/18 04:00:32;;;;;;;19.23;6.97;;;;;;;16.95;100.00;102145.81;5070901;28;20062;-74
2022/10/18 04:02:58;;;;;;;16.02;6.65;;;;;;;16.93;100.00;102131.44;5083567;28;20121;-72
2022/10/18 04:05:27;;;;;;;16.52;7.38;;;;;;;16.94;100.00;102136.63;5075156;28;20052;-75
2022/10/18 04:07:53;;;;;;;15.82;6.88;;;;;;;16.95;100.00;102140.22;5086220;28;20043;-74
2022/10/18 04:10:20;;;;;;;17.98;6.95;;;;;;;16.93;100.00;102140.63;5074558;28;20519;-75
2022/10/18 04:12:47;;;;;;;14.82;6.32;;;;;;;16.97;100.00;102147.00;5074469;28;20589;-74
2022/10/18 04:15:14;;;;;;;20.30;7.43;;;;;;;16.95;100.00;102148.63;5081774;28;20048;-74
2022/10/18 04:17:40;;;;;;;18.70;8.23;;;;;;;16.95;100.00;102155.03;5084458;28;20181;-75
2022/10/18 04:20:10;;;;;;;20.00;7.10;;;;;;;16.98;100.00;102156.97;5083191;28;20390;-73
2022/10/18 04:22:36;;;;;;;17.85;7.97;;;;;;;16.99;100.00;102163.38;5086997;28;20055;-75
2022/10/18 04:25:03;;;;;;;20.05;8.30;;;;;;;16.96;100.00;102156.59;5077959;28;20052;-75
2022/10/18 04:27:30;;;;;;;19.65;8.18;;;;;;;16.99;100.00;102149.41;5079957;28;20618;-73
2022/10/18 04:30:01;;;;;;;19.75;7.78;;;;;;;17.01;100.00;102158.19;5074979;28;20122;-75
2022/10/18 04:32:28;;;;;;;15.88;7.38;;;;;;;16.97;100.00;102157.38;5067931;28;20056;-74
2022/10/18 04:34:57;;;;;;;18.38;8.45;;;;;;;16.98;100.00;102156.19;5084093;28;20074;-74
2022/10/18 04:37:24;;;;;;;21.90;9.77;;;;;;;17.01;100.00;102153.38;5078910;28;20059;-74
2022/10/18 04:39:50;;;;;;;24.08;9.18;;;;;;;17.01;100.00;102158.97;5088204;28;20040;-74
2022/10/18 04:42:20;;;;;;;22.65;8.13;;;;;;;17.00;100.00;102159.38;5085762;28;20084;-74
2022/10/18 04:44:46;;;;;;;21.42;10.00;;;;;;;16.98;100.00;102148.59;5077407;28;20056;-74
2022/10/18 04:47:13;;;;;;;22.70;8.75;;;;;;;17.01;100.00;102152.59;5084652;28;20048;-75
2022/10/18 04:49:42;;;;;;;25.70;9.70;;;;;;;17.01;100.00;102155.38;5090965;28;20442;-74
2022/10/18 04:52:10;;;;;;;21.27;8.45;;;;;;;16.98;100.00;102164.59;5087536;28;20557;-74
2022/10/18 04:54:36;;;;;;;21.83;8.35;;;;;;;16.95;100.00;102162.59;5089445;28;20467;-74
2022/10/18 04:57:06;;;;;;;20.65;8.43;;;;;;;16.92;100.00;102160.63;5073203;28;20071;-75
2022/10/18 04:59:32;;;;;;;19.08;8.15;;;;;;;16.95;100.00;102157.81;5078619;28;20044;-74
2022/10/18 05:01:59;;;;;;;20.60;8.35;;;;;;;16.97;100.00;102157.38;5073307;28;20459;-75
2022/10/18 05:04:28;;;;;;;16.65;7.32;;;;;;;16.91;100.00;102153.44;5083681;28;20048;-73
2022/10/18 05:06:54;;;;;;;18.98;8.95;;;;;;;16.93;100.00;102160.22;5075612;28;20048;-74
2022/10/18 05:09:23;;;;;;;22.02;8.88;;;;;;;16.93;100.00;102167.78;5083506;28;20044;-75
2022/10/18 05:11:50;;;;;;;27.13;10.30;;;;;;;16.91;100.00;102156.22;5081325;28;20047;-74
2022/10/18 05:14:17;;;;;;;20.45;10.35;;;;;;;16.93;100.00;102163.00;5087979;28;20057;-73
2022/10/18 05:16:43;;;;;;;21.58;11.05;;;;;;;16.93;100.00;102167.78;5083749;28;20043;-74
2022/10/18 05:19:10;;;;;;;20.30;9.02;;;;;;;16.93;100.00;102162.19;5084698;28;20568;-74
2022/10/18 05:21:37;;;;;;;20.05;8.20;;;;;;;16.91;100.00;102153.44;5076127;28;20480;-75
2022/10/18 05:24:04;;;;;;;22.23;8.77;;;;;;;16.93;100.00;102151.03;5086283;28;20052;-75
2022/10/18 05:26:35;;;;;;;22.75;10.98;;;;;;;16.95;100.00;102157.00;5072063;28;20051;-75
2022/10/18 05:29:02;;;;;;;23.80;8.73;;;;;;;16.97;100.00;102151.78;5083629;28;20056;-74
2022/10/18 05:31:29;;;;;;;20.42;7.82;;;;;;;16.96;100.00;102144.63;5083594;28;20048;-74
2022/10/18 05:33:55;;;;;;;19.40;9.20;;;;;;;16.95;100.00;102143.03;5078621;28;20052;-74
2022/10/18 05:36:24;;;;;;;20.50;8.90;;;;;;;16.94;100.00;102149.84;5086353;28;20053;-75
2022/10/18 05:38:51;;;;;;;24.42;8.93;;;;;;;16.93;100.00;102143.44;5082848;28;20462;-74
2022/10/18 05:41:18;;;;;;;24.27;9.50;;;;;;;16.94;100.00;102149.84;5075180;28;20402;-74
2022/10/18 05:43:44;;;;;;;25.27;10.02;;;;;;;16.93;100.00;102153.81;5075342;28;20056;-74
2022/10/18 05:46:11;;;;;;;18.42;8.00;;;;;;;16.88;100.00;102157.03;5089143;28;20101;-74
2022/10/18 05:48:42;;;;;;;23.67;8.98;;;;;;;16.85;100.00;102150.28;5084813;28;20135;-75
2022/10/18 05:51:09;;;;;;;20.60;9.60;;;;;;;16.88;100.00;102154.25;5088568;28;20071;-74
2022/10/18 05:53:35;;;;;;;21.67;8.75;;;;;;;16.88;100.00;102160.63;5090604;28;20097;-73
2022/10/18 05:56:07;;;;;;;17.85;8.02;;;;;;;16.87;100.00;102166.66;5088739;28;20043;-75
2022/10/18 05:58:35;;;;;;;19.10;8.45;;;;;;;16.88;100.00;102180.19;5086286;28;20098;-72
2022/10/18 06:01:04;;;;;;;18.25;8.23;;;;;;;16.82;100.00;102167.84;5084853;28;20066;-74
2022/10/18 06:03:31;;;;;;;24.23;9.90;;;;;;;16.80;100.00;102161.84;5078754;28;20393;-73
2022/10/18 06:06:07;;;;;;;23.95;10.88;;;;;;;16.80;100.00;102169.44;5074708;28;20055;-73
2022/10/18 06:08:34;;;;;;;24.13;9.85;;;;;;;16.83;100.00;102175.03;5088938;28;20056;-76
2022/10/18 06:11:07;;;;;;;30.67;10.70;;;;;;;16.84;100.00;102170.25;5098295;28;20043;-74
2022/10/18 06:13:34;;;;;;;24.05;11.07;;;;;;;16.80;100.00;102175.03;5083051;28;20472;-74
2022/10/18 06:16:00;;;;;;;26.13;12.13;;;;;;;16.87;100.00;102183.41;5091085;28;20064;-73
2022/10/18 06:18:28;;;;;;;30.15;12.85;;;;;;;16.86;100.00;102181.81;5090911;28;20062;-74
2022/10/18 06:20:56;;;;;;;30.00;13.40;;;;;;;16.79;100.00;102182.63;5089522;28;20042;-74
2022/10/18 06:23:23;;;;;;;33.80;13.68;;;;;;;16.75;100.00;102183.84;5093262;28;20058;-74
2022/10/18 06:25:50;;;;;;;31.55;12.68;;;;;;;16.78;100.00;102197.78;5089416;28;20048;-73
2022/10/18 06:28:16;;;;;;;30.20;12.60;;;;;;;16.75;100.00;102190.25;5087031;28;20621;-73
2022/10/18 06:30:43;;;;;;;32.50;14.07;;;;;;;16.70;100.00;102193.44;5088680;28;20048;-75
2022/10/18 06:33:12;;;;;;;30.95;14.88;;;;;;;16.70;100.00;102195.41;5092848;28;20044;-73
2022/10/18 06:35:39;;;;;;;33.78;14.32;;;;;;;16.73;100.00;102200.22;5092330;28;20055;-74
2022/10/18 06:38:05;;;;;;;36.15;15.85;;;;;;;16.72;100.00;102207.81;5078946;28;20646;-74
2022/10/18 06:40:36;;;;;;;35.70;15.07;;;;;;;16.75;100.00;102206.22;5083349;28;20051;-74
2022/10/18 06:43:07;;;;;;;35.42;14.48;;;;;;;16.75;100.00;102209.00;5087820;28;20055;-74
2022/10/18 06:45:47;;;;;;;43.65;16.90;;;;;;;16.75;100.00;102214.59;5087538;28;20488;-74
2022/10/18 06:48:15;;;;;;;36.47;17.73;;;;;;;16.77;100.00;102210.19;5072564;28;20185;-74
2022/10/18 06:50:41;;;;;;;41.75;17.42;;;;;;;16.81;100.00;102210.97;5105750;28;20043;-74
2022/10/18 06:53:08;;;;;;;37.38;18.15;;;;;;;16.84;100.00;102203.78;5087628;28;20496;-73
2022/10/18 06:55:35;;;;;;;40.70;18.25;;;;;;;16.86;100.00;102215.34;5082304;28;20428;-74
2022/10/18 06:58:01;;;;;;;38.95;17.60;;;;;;;16.88;100.00;102213.75;5078382;28;20039;-74
2022/10/18 07:00:28;;;;;;;42.45;16.92;;;;;;;16.88;100.00;102226.94;5091602;28;20048;-73
2022/10/18 07:02:57;;;;;;;36.95;17.13;;;;;;;16.91;100.00;102226.13;5086742;28;20044;-73
2022/10/18 07:05:23;;;;;;;37.42;17.50;;;;;;;16.90;100.00;102230.09;5081134;28;20056;-73
2022/10/18 07:07:50;;;;;;;38.55;17.27;;;;;;;16.91;100.00;102246.47;5092165;28;20063;-73
2022/10/18 07:10:22;;;;;;;36.95;17.30;;;;;;;16.93;100.00;102232.09;5087005;28;20064;-73
2022/10/18 07:12:48;;;;;;;35.92;17.00;;;;;;;16.97;100.00;102239.28;5089397;28;20066;-73
2022/10/18 07:15:21;;;;;;;48.17;18.25;;;;;;;17.01;100.00;102236.50;5096849;28;20044;-73
2022/10/18 07:17:48;;;;;;;42.60;19.13;;;;;;;17.05;100.00;102237.25;5087633;28;20147;-74
2022/10/18 07:20:15;;;;;;;45.88;17.92;;;;;;;17.07;100.00;102229.25;5086312;28;20552;-72
2022/10/18 07:22:41;;;;;;;45.30;20.33;;;;;;;17.10;100.00;102242.44;5080087;28;20074;-75
2022/10/18 07:25:08;;;;;;;38.45;19.23;;;;;;;17.13;100.00;102248.03;5087320;28;20044;-74
2022/10/18 07:27:39;;;;;;;46.17;20.85;;;;;;;17.12;100.00;102243.63;5093209;28;20055;-74
2022/10/18 07:30:08;;;;;;;52.88;22.63;;;;;;;17.16;100.00;102252.00;5079018;28;20048;-73
2022/10/18 07:32:34;;;;;;;45.95;22.23;;;;;;;17.22;100.00;102258.78;5072735;28;20056;-75
2022/10/18 07:35:01;;;;;;;52.72;24.88;;;;;;;17.29;100.00;102261.53;5085467;28;20416;-74
2022/10/18 07:37:28;;;;;;;55.65;23.98;;;;;;;17.35;100.00;102265.53;5083520;28;20570;-75
2022/10/18 07:39:55;;;;;;;63.45;25.35;;;;;;;17.44;100.00;102268.69;5086561;28;20044;-74
2022/10/18 07:42:22;;;;;;;59.00;27.02;;;;;;;17.49;100.00;102269.06;5077592;28;20098;-74
2022/10/18 07:44:48;;;;;;;65.13;27.60;;;;;;;17.54;100.00;102270.63;5086744;28;20158;-76
2022/10/18 07:47:15;;;;;;;62.08;25.40;;;;;;;17.54;100.00;102271.44;5086117;28;20055;-70
2022/10/18 07:49:41;;;;;;;58.92;25.20;;;;;;;17.61;100.00;102271.41;5071290;28;20052;-74
2022/10/18 07:52:08;;;;;;;62.38;27.88;;;;;;;17.60;100.00;102275.41;5088281;28;20044;-73
2022/10/18 07:54:34;;;;;;;60.80;28.25;;;;;;;17.66;100.00;102282.16;5087548;28;20683;-73
2022/10/18 07:57:03;;;;;;;60.53;27.67;;;;;;;17.71;100.00;102286.53;5085543;28;21450;-73
2022/10/18 07:59:29;;;;;;;66.13;28.80;;;;;;;17.72;100.00;102293.75;5080307;28;20056;-73
2022/10/18 08:01:56;;;;;;;58.03;27.45;;;;;;;17.72;100.00;102293.75;5086804;28;20055;-73
2022/10/18 08:04:22;;;;;;;62.65;29.42;;;;;;;17.71;100.00;102289.34;5081532;28;20052;-73
2022/10/18 08:06:49;;;;;;;63.80;28.65;;;;;;;17.68;100.00;102288.16;5069536;28;20476;-73
2022/10/18 08:09:15;;;;;;;61.42;29.30;;;;;;;17.76;100.00;102294.53;5073552;28;20116;-73
2022/10/18 08:11:42;;;;;;;60.42;29.30;;;;;;;17.77;100.00;102302.53;5086785;28;20052;-73
2022/10/18 08:14:08;;;;;;;67.00;30.50;;;;;;;17.81;100.00;102308.88;5089516;28;20052;-74
2022/10/18 08:16:34;;;;;;;60.83;29.27;;;;;;;17.83;100.00;102311.28;5082280;28;20059;-73
2022/10/18 08:19:01;;;;;;;65.82;29.00;;;;;;;17.86;100.00;102316.06;5076104;28;20048;-73
2022/10/18 08:21:27;;;;;;;62.17;28.55;;;;;;;17.87;100.00;102321.25;5075496;28;20051;-72
2022/10/18 08:23:54;;;;;;;59.28;25.52;;;;;;;17.85;100.00;102320.88;5077596;28;20055;-73
2022/10/18 08:26:22;;;;;;;58.60;28.85;;;;;;;17.83;100.00;102319.69;5084703;28;20048;-72
2022/10/18 08:28:49;;;;;;;59.53;28.77;;;;;;;17.81;100.00;102322.09;5082770;28;20044;-74
2022/10/18 08:31:29;;;;;;;59.92;29.67;;;;;;;17.79;100.00;102327.31;5070150;28;20106;-73
2022/10/18 08:33:56;;;;;;;66.65;28.67;;;;;;;17.79;100.00;102338.50;5081350;28;20508;-73
2022/10/18 08:36:22;;;;;;;73.72;31.38;;;;;;;17.74;100.00;102342.53;5086155;28;20113;-73
2022/10/18 08:38:49;;;;;;;63.40;27.73;;;;;;;17.70;100.00;102333.34;5084371;28;20055;-73
2022/10/18 08:41:36;;;;;;;67.43;29.83;;;;;;;17.70;100.00;102341.75;5080156;28;20052;-74
2022/10/18 08:44:10;;;;;;;69.22;29.77;;;;;;;17.71;100.00;102342.53;5079753;28;20469;-74
2022/10/18 08:46:41;;;;;;;66.32;28.42;;;;;;;17.78;100.00;102342.50;5067964;28;20049;-73
2022/10/18 08:49:17;;;;;;;69.53;30.38;;;;;;;17.81;100.00;102336.09;5079487;28;20139;-73
2022/10/18 08:51:47;;;;;;;64.15;28.63;;;;;;;17.87;100.00;102340.88;5086592;28;20040;-74
2022/10/18 08:54:35;;;;;;;64.22;29.30;;;;;;;17.98;100.00;102348.41;5087375;28;20105;-74
2022/10/18 08:57:09;;;;;;;65.70;29.95;;;;;;;18.10;100.00;102354.34;5080852;28;20043;-73
2022/10/18 08:59:40;;;;;;;65.82;29.52;;;;;;;18.20;100.00;102353.47;5094235;28;20059;-73
2022/10/18 09:02:32;;;;;;;62.10;28.35;;;;;;;18.24;100.00;102359.84;5087442;28;20043;-74
2022/10/18 09:05:30;;;;;;;65.10;29.27;;;;;;;18.27;100.00;102361.84;5082895;28;20044;-73
2022/10/18 09:08:10;;;;;;;66.30;28.38;;;;;;;18.31;100.00;102354.19;5086000;28;20048;-73
2022/10/18 09:11:06;;;;;;;69.35;29.67;;;;;;;18.29;100.00;102350.22;5085515;28;20048;-73
2022/10/18 09:13:54;;;;;;;63.20;29.50;;;;;;;18.36;100.00;102361.41;5085329;28;20051;-72
2022/10/18 09:16:37;;;;;;;64.95;28.63;;;;;;;18.32;100.00;102364.19;5093878;28;20056;-73
2022/10/18 09:19:21;;;;;;;73.35;32.90;;;;;;;18.33;100.00;102359.38;5082141;28;20079;-72
2022/10/18 09:21:59;;;;;;;69.38;31.67;;;;;;;18.32;100.00;102364.19;5088718;28;20048;-73
2022/10/18 09:24:43;;;;;;;58.15;27.67;;;;;;;18.35;100.00;102365.38;5091182;28;20044;-73
2022/10/18 09:27:15;;;;;;;67.40;30.17;;;;;;;18.34;100.00;102367.38;5085682;28;20474;-73
2022/10/18 09:30:03;;;;;;;59.22;27.80;;;;;;;18.34;100.00;102369.38;5090908;28;20546;-73
2022/10/18 09:32:46;;;;;;;64.65;30.73;;;;;;;18.40;100.00;102360.16;5095011;28;20059;-73
2022/10/18 09:35:20;;;;;;;61.00;28.88;;;;;;;18.40;100.00;102360.16;5090041;28;20060;-74
2022/10/18 09:37:47;;;;;;;63.75;28.60;;;;;;;18.51;100.00;102355.28;5107203;27;20058;-73
2022/10/18 09:40:20;;;;;;;55.72;26.48;;;;;;;18.66;100.00;102362.34;5089996;28;20113;-73
2022/10/18 09:42:55;;;;;;;56.72;25.70;;;;;;;18.82;100.00;102368.22;5091673;28;20058;-72
2022/10/18 09:45:33;;;;;;;52.97;24.30;;;;;;;19.04;100.00;102366.78;5086103;28;20109;-73
2022/10/18 09:48:07;;;;;;;54.63;25.48;;;;;;;19.20;100.00;102367.03;5083436;28;20044;-73
2022/10/18 09:50:42;;;;;;;48.53;24.67;;;;;;;19.22;100.00;102363.81;5090260;28;20429;-73
2022/10/18 09:53:10;;;;;;;;;;;;;;;19.22;100.00;102373.03;5088498;28;20527;-73
2022/10/18 09:56:15;;;;;;;45.90;21.88;;;;;;;18.96;100.00;102372.91;5089899;28;19920;-73
2022/10/18 09:58:45;;;;;;;46.63;20.85;;;;;;;18.70;100.00;102370.75;5086919;28;20051;-73
2022/10/18 10:01:14;;;;;;;50.35;23.02;;;;;;;18.85;100.00;102366.59;5085345;28;20040;-73
2022/10/18 10:03:41;;;;;;;48.67;23.42;;;;;;;18.94;100.00;102364.13;5070615;28;20853;-73
2022/10/18 10:06:10;;;;;;;48.33;20.05;;;;;;;19.02;100.00;102383.28;5087052;28;20055;-73
2022/10/18 10:08:41;;;;;;;38.00;20.00;;;;;;;19.17;100.00;102383.94;5086675;28;20072;-72
2022/10/18 10:11:31;;;;;;;40.33;20.88;;;;;;;19.53;100.00;102383.16;5084336;28;20234;-70
2022/10/18 10:14:24;;;;;;;38.22;18.63;;;;;;;19.72;100.00;102382.53;5089813;28;20120;-73
2022/10/18 10:17:01;;;;;;;34.40;16.67;;;;;;;20.06;100.00;102385.28;5087875;28;20072;-73
2022/10/18 10:19:30;;;;;;;38.90;20.83;;;;;;;20.32;100.00;102390.16;5089546;28;20056;-73
2022/10/18 10:22:25;;;;;;;44.47;23.08;;;;;;;20.62;100.00;102381.63;5088509;28;20711;-73
2022/10/18 10:24:53;;;;;;;39.27;20.80;;;;;;;20.52;100.00;102387.44;5087675;28;20056;-72
2022/10/18 10:27:22;;;;;;;41.08;22.83;;;;;;;20.72;100.00;102389.09;5088917;28;20055;-74
2022/10/18 10:29:55;;;;;;;43.70;22.27;;;;;;;21.01;100.00;102395.88;5088128;28;20594;-73
2022/10/18 10:32:25;;;;;;;41.70;21.77;;;;;;;21.30;100.00;102391.34;5090737;28;20404;-73
2022/10/18 10:34:53;;;;;;;38.05;18.30;;;;;;;21.44;100.00;102393.06;5089738;28;20051;-73
2022/10/18 10:37:28;;;;;;;39.03;21.00;;;;;;;21.28;100.00;102393.78;5086098;28;20052;-73
2022/10/18 10:40:13;;;;;;;;;;;;;;;21.03;100.00;102403.91;5089391;28;20080;-69
2022/10/18 10:43:06;;;;;;;46.83;21.20;;;;;;;21.05;100.00;102401.44;5089020;28;19963;-73
2022/10/18 10:46:09;;;;;;;37.85;19.20;;;;;;;20.82;100.00;102405.00;5084303;28;20079;-73
2022/10/18 10:48:46;;;;;;;41.25;19.98;;;;;;;20.90;100.00;102398.06;5086076;27;20052;-73
2022/10/18 10:51:15;;;;;;;33.58;18.67;;;;;;;21.20;100.00;102397.16;5084237;28;20558;-72
2022/10/18 10:53:45;;;;;;;41.17;21.30;;;;;;;21.36;100.00;102398.03;5089367;28;20048;-71
2022/10/18 10:56:20;;;;;;;35.05;17.77;;;;;;;21.80;100.00;102383.50;5090854;28;20051;-74
2022/10/18 10:58:47;;;;;;;31.75;17.80;;;;;;;22.17;100.00;102387.94;5088854;28;20113;-72
2022/10/18 11:01:22;;;;;;;31.30;16.75;;;;;;;22.22;100.00;102393.84;5087826;28;20066;-74
2022/10/18 11:03:52;;;;;;;30.83;16.13;;;;;;;22.24;100.00;102404.69;5082254;28;20105;-74
2022/10/18 11:06:32;;;;;;;30.52;15.30;;;;;;;22.60;100.00;102400.63;5086855;28;20052;-74
2022/10/18 11:09:03;;;;;;;33.03;13.90;;;;;;;22.72;100.00;102390.66;5084283;28;20102;-72
2022/10/18 11:11:45;;;;;;;26.33;12.18;;;;;;;22.23;100.00;102405.91;5085184;28;20075;-73
2022/10/18 11:14:26;;;;;;;23.00;10.93;;;;;;;22.51;100.00;102402.47;5085189;28;20055;-72
2022/10/18 11:17:06;;;;;;;26.30;11.00;;;;;;;22.90;100.00;102405.13;5081815;28;20049;-73
2022/10/18 11:19:48;;;;;;;24.20;11.43;;;;;;;23.38;100.00;102393.00;5077939;28;20441;-73
2022/10/18 11:22:19;;;;;;;23.38;10.75;;;;;;;23.50;100.00;102397.88;5081830;28;20519;-73
2022/10/18 11:24:46;;;;;;;25.10;10.68;;;;;;;23.21;97.28;102400.66;5081249;28;20056;-74